Time;durP1;ratioP1;P1;durP2;ratioP2;P2;SDS_P1;SDS_P2;PMS_P1;PMS_P2;Temp;Humidity;BMP_temperature;BMP_pressure;BME280_temperature;BME280_humidity;BME280_pressure;Samples;Min_cycle;Max_cycle;Signal;HPM_P1;HPM_P2
2022/12/14 00:02:47;;;;;;;68.70;47.55;;;;;;;;;;5030804;28;20045;-70
2022/12/14 00:05:51;;;;;;;72.07;48.15;;;;;;;;;;5030766;28;20052;-69
2022/12/14 00:08:58;;;;;;;71.63;49.08;;;11.70;99.90;;;;;;5030830;28;20041;-70
2022/12/14 00:12:02;;;;;;;68.22;49.00;;;;;;;;;;5030824;28;20049;-70
2022/12/14 00:15:07;;;;;;;68.18;46.25;;;;;;;;;;5030881;28;20445;-68
2022/12/14 00:18:12;;;;;;;67.43;46.22;;;;;;;;;;5030678;28;20045;-69
2022/12/14 00:21:16;;;;;;;63.28;45.90;;;11.40;99.90;;;;;;5029706;28;20045;-69
2022/12/14 00:24:20;;;;;;;59.47;44.08;;;;;;;;;;5030455;28;20246;-67
2022/12/14 00:27:25;;;;;;;57.38;42.40;;;;;;;;;;5030341;28;20040;-69
2022/12/14 00:30:29;;;;;;;59.60;42.38;;;;;;;;;;5030958;28;20040;-69
2022/12/14 00:33:35;;;;;;;60.72;39.90;;;11.80;99.90;;;;;;5030515;28;20405;-69
2022/12/14 00:36:39;;;;;;;59.70;43.03;;;;;;;;;;5030293;28;20044;-69
2022/12/14 00:39:43;;;;;;;59.85;47.10;;;;;;;;;;5030068;28;20040;-69
2022/12/14 00:42:47;;;;;;;64.25;46.95;;;;;;;;;;5030167;28;20519;-69
2022/12/14 00:45:52;;;;;;;67.28;47.63;;;;;;;;;;5033180;28;20044;-68
2022/12/14 00:48:57;;;;;;;71.22;49.42;;;;;;;;;;5033902;28;20056;-69
2022/12/14 00:52:01;;;;;;;64.53;45.78;;;;;;;;;;5033779;28;20045;-69
2022/12/14 00:55:06;;;;;;;72.65;52.03;;;;;;;;;;5033364;28;20053;-69
2022/12/14 00:58:11;;;;;;;73.82;51.65;;;11.50;99.90;;;;;;5033434;28;20032;-69
2022/12/14 01:01:16;;;;;;;77.50;53.33;;;11.00;99.90;;;;;;5033565;28;20056;-68
2022/12/14 01:04:21;;;;;;;72.95;52.90;;;;;;;;;;5033543;28;20048;-69
2022/12/14 01:07:26;;;;;;;74.45;53.30;;;;;;;;;;5033824;28;20056;-68
2022/12/14 01:10:30;;;;;;;74.57;51.97;;;;;;;;;;5033680;28;20048;-69
2022/12/14 01:13:36;;;;;;;68.88;50.60;;;11.20;99.90;;;;;;5033392;28;20056;-69
2022/12/14 01:16:40;;;;;;;69.53;50.83;;;;;;;;;;5033711;28;20204;-69
2022/12/14 01:19:45;;;;;;;74.05;51.60;;;;;;;;;;5033216;28;20049;-69
2022/12/14 01:22:54;;;;;;;71.03;52.65;;;11.30;99.90;;;;;;5033381;28;20078;-68
2022/12/14 01:25:58;;;;;;;72.55;51.85;;;;;;;;;;5033263;28;20044;-69
2022/12/14 01:29:03;;;;;;;65.70;49.83;;;11.40;99.90;;;;;;5033155;28;20044;-69
2022/12/14 01:32:08;;;;;;;69.80;51.83;;;;;;;;;;5033421;28;20500;-69
2022/12/14 01:35:12;;;;;;;71.55;51.40;;;11.50;99.90;;;;;;5033085;28;20053;-69
2022/12/14 01:38:17;;;;;;;68.03;48.95;;;;;;;;;;5033250;28;20056;-70
2022/12/14 01:41:28;;;;;;;71.53;50.47;;;9.70;99.90;;;;;;5032086;28;20045;-68
2022/12/14 01:44:31;;;;;;;73.72;52.00;;;11.60;99.90;;;;;;5032706;28;20397;-69
2022/12/14 01:47:43;;;;;;;67.72;47.60;;;11.50;99.90;;;;;;5032976;28;20044;-68
2022/12/14 01:50:47;;;;;;;68.20;47.65;;;12.30;99.90;;;;;;5032726;28;20049;-68
2022/12/14 01:53:52;;;;;;;56.88;39.42;;;11.20;99.90;;;;;;5032662;28;20048;-69
2022/12/14 01:56:56;;;;;;;50.30;37.83;;;8.50;99.90;;;;;;5031670;28;20061;-69
2022/12/14 02:00:01;;;;;;;49.90;37.72;;;;;;;;;;5032539;28;20048;-69
2022/12/14 02:03:19;;;;;;;52.70;38.55;;;11.70;99.90;;;;;;5032570;28;20048;-69
2022/12/14 02:06:34;;;;;;;55.53;38.47;;;11.60;99.90;;;;;;5032770;28;20056;-69
2022/12/14 02:09:42;;;;;;;59.28;39.90;;;11.60;99.90;;;;;;5032408;28;20049;-69
2022/12/14 02:12:56;;;;;;;52.85;38.33;;;11.70;99.90;;;;;;5043336;28;20057;-69
2022/12/14 02:16:00;;;;;;;56.92;39.88;;;;;;;;;;5032459;28;20048;-68
2022/12/14 02:19:04;;;;;;;60.38;44.22;;;;;;;;;;5032199;28;20040;-68
2022/12/14 02:22:31;;;;;;;65.50;45.25;;;11.80;99.90;;;;;;5031949;28;20040;-69
2022/12/14 02:25:53;;;;;;;63.47;47.03;;;13.60;99.90;;;;;;5032289;28;20053;-69
2022/12/14 02:28:57;;;;;;;;;;;11.70;99.90;;;;;;5032406;28;20040;-69
2022/12/14 02:32:01;;;;;;;70.57;49.63;;;;;;;;;;5032129;28;19916;-68
2022/12/14 02:35:17;;;;;;;74.00;51.83;;;11.60;99.90;;;;;;5032240;28;20056;-68
2022/12/14 02:38:24;;;;;;;77.63;51.60;;;11.50;99.90;;;;;;5031980;28;20053;-68
2022/12/14 02:41:37;;;;;;;71.90;51.75;;;11.70;99.90;;;;;;5031505;28;20040;-70
2022/12/14 02:45:05;;;;;;;73.25;48.15;;;11.60;99.90;;;;;;5031456;28;20045;-69
2022/12/14 02:48:42;;;;;;;65.57;46.75;;;11.70;99.90;;;;;;5031695;28;20048;-70
2022/12/14 02:52:12;;;;;;;74.88;49.90;;;11.70;99.90;;;;;;5031863;28;20524;-70
2022/12/14 02:55:30;;;;;;;65.60;47.80;;;11.60;99.90;;;;;;5031133;28;20056;-70
2022/12/14 02:58:36;;;;;;;65.45;48.35;;;11.70;99.90;;;;;;5031338;28;20048;-69
2022/12/14 03:01:42;;;;;;;67.10;47.25;;;11.60;99.90;;;;;;5031512;28;20060;-69
2022/12/14 03:04:49;;;;;;;65.75;47.90;;;12.00;99.90;;;;;;5031300;28;20036;-69
2022/12/14 03:08:00;;;;;;;66.68;48.90;;;11.70;99.90;;;;;;5031187;28;20048;-69
2022/12/14 03:11:05;;;;;;;65.28;48.55;;;10.50;99.90;;;;;;5031586;28;20036;-69
2022/12/14 03:14:16;;;;;;;67.78;48.83;;;9.90;99.90;;;;;;5031129;28;20044;-69
2022/12/14 03:17:28;;;;;;;66.72;49.30;;;12.20;99.90;;;;;;5031218;28;20052;-69
2022/12/14 03:20:34;;;;;;;65.18;47.20;;;11.70;99.90;;;;;;5031496;28;20072;-69
2022/12/14 03:23:42;;;;;;;64.97;47.75;;;11.50;99.90;;;;;;5031796;28;20393;-69
2022/12/14 03:26:53;;;;;;;69.95;52.28;;;13.20;99.90;;;;;;5031427;28;20416;-69
2022/12/14 03:30:02;;;;;;;74.73;51.27;;;13.30;99.90;;;;;;5031050;28;20056;-69
2022/12/14 03:33:13;;;;;;;67.68;49.08;;;12.60;99.90;;;;;;5030816;28;20044;-69
2022/12/14 03:36:42;;;;;;;68.57;48.15;;;11.80;99.90;;;;;;5031015;28;20427;-69
2022/12/14 03:39:46;;;;;;;62.92;49.00;;;10.80;99.90;;;;;;5031064;28;20041;-69
2022/12/14 03:43:04;;;;;;;69.72;52.10;;;12.00;99.90;;;;;;5031242;28;20048;-69
2022/12/14 03:46:33;;;;;;;66.97;49.10;;;13.70;99.90;;;;;;5031114;28;20060;-69
2022/12/14 03:49:59;;;;;;;73.13;51.78;;;11.90;99.90;;;;;;5031159;28;20049;-70
2022/12/14 03:53:15;;;;;;;69.88;51.65;;;11.80;99.90;;;;;;5031077;28;20047;-68
2022/12/14 03:56:30;;;;;;;69.85;50.88;;;11.70;99.90;;;;;;5030804;28;20060;-69
2022/12/14 03:59:58;;;;;;;68.38;48.58;;;11.80;99.90;;;;;;5030948;28;20049;-70
2022/12/14 04:03:39;;;;;;;63.85;48.10;;;10.90;99.90;;;;;;5031086;28;20045;-68
2022/12/14 04:06:58;;;;;;;62.22;47.45;;;11.90;99.90;;;;;;5031434;28;20049;-69
2022/12/14 04:21:09;;;;;;;57.70;43.92;;;12.00;99.90;;;;;;5033360;28;20044;-68
2022/12/14 04:27:56;;;;;;;63.28;49.13;;;11.80;99.90;;;;;;5034695;28;20048;-68
2022/12/14 04:31:06;;;;;;;61.10;47.97;;;12.00;99.90;;;;;;5034519;28;20385;-69
2022/12/14 04:34:14;;;;;;;65.28;50.08;;;12.00;99.90;;;;;;5034168;28;20053;-69
2022/12/14 04:37:21;;;;;;;68.63;50.47;;;15.10;99.90;;;;;;5034204;28;20053;-69
2022/12/14 04:40:36;;;;;;;71.00;54.50;;;12.10;99.90;;;;;;5034318;28;20109;-69
2022/12/14 04:43:44;;;;;;;69.18;50.33;;;12.40;99.90;;;;;;5034479;28;20044;-67
2022/12/14 04:46:48;;;;;;;67.80;50.95;;;;;;;;;;5033868;28;20072;-68
2022/12/14 04:50:00;;;;;;;69.15;50.70;;;11.40;99.90;;;;;;5034036;28;20044;-68
2022/12/14 04:53:15;;;;;;;66.82;48.80;;;11.80;99.90;;;;;;5034032;28;20048;-68
2022/12/14 04:56:45;;;;;;;64.75;48.45;;;12.00;99.90;;;;;;5034274;28;20064;-69
2022/12/14 04:59:50;;;;;;;69.60;49.58;;;11.90;99.90;;;;;;5037485;28;20053;-69
2022/12/14 05:02:54;;;;;;;65.55;49.72;;;;;;;;;;5033680;28;20045;-68
2022/12/14 05:06:07;;;;;;;63.92;49.08;;;10.80;99.90;;;;;;5033937;28;20405;-69
2022/12/14 05:09:21;;;;;;;68.70;48.38;;;11.90;99.90;;;;;;5033462;28;20080;-69
2022/12/14 05:12:38;;;;;;;62.25;47.92;;;12.30;99.90;;;;;;5033664;28;20611;-69
2022/12/14 05:15:47;;;;;;;64.88;48.85;;;14.80;99.90;;;;;;5033794;28;20045;-69
2022/12/14 05:18:51;;;;;;;57.90;45.83;;;;;;;;;;5033435;28;20044;-69
2022/12/14 05:21:56;;;;;;;58.45;43.33;;;;;;;;;;5033413;28;20064;-68
2022/12/14 05:25:00;;;;;;;59.30;43.90;;;;;;;;;;5033676;28;20401;-68
2022/12/14 05:28:05;;;;;;;60.10;43.92;;;;;;;;;;5033234;28;20048;-68
2022/12/14 05:31:09;;;;;;;50.88;38.80;;;15.00;99.90;;;;;;5033501;28;20505;-68
2022/12/14 05:34:13;;;;;;;49.72;38.47;;;;;;;;;;5033050;28;20053;-69
2022/12/14 05:37:17;;;;;;;50.63;39.60;;;;;;;;;;5032133;28;20040;-67
2022/12/14 05:40:21;;;;;;;51.60;39.45;;;15.50;99.90;;;;;;5033334;28;20040;-69
2022/12/14 05:43:25;;;;;;;48.75;37.63;;;12.50;99.90;;;;;;5033122;28;20045;-69
2022/12/14 05:46:29;;;;;;;49.50;36.55;;;15.80;99.90;;;;;;5033226;28;20064;-69
2022/12/14 05:49:34;;;;;;;57.22;38.63;;;;;;;;;;5032973;28;20036;-67
2022/12/14 05:52:38;;;;;;;44.15;31.80;;;12.20;99.90;;;;;;5033202;28;20048;-68
2022/12/14 05:55:46;;;;;;;37.35;27.98;;;12.30;99.90;;;;;;5032555;28;20057;-68
2022/12/14 05:58:51;;;;;;;33.03;26.02;;;;;;;;;;5032906;28;20044;-69
2022/12/14 06:01:55;;;;;;;34.38;26.70;;;12.50;99.90;;;;;;5032784;28;20068;-67
2022/12/14 06:04:59;;;;;;;34.75;25.27;;;12.40;99.90;;;;;;5032944;28;20392;-67
2022/12/14 06:08:03;;;;;;;35.35;24.23;;;14.20;99.90;;;;;;5032813;28;20048;-69
2022/12/14 06:11:14;;;;;;;35.03;24.15;;;12.30;99.90;;;;;;5033034;28;20060;-70
2022/12/14 06:14:18;;;;;;;31.30;23.15;;;;;;;;;;5032413;28;20060;-68
2022/12/14 06:17:22;;;;;;;28.75;23.63;;;;;;;;;;5033132;28;20049;-68
2022/12/14 06:20:27;;;;;;;42.78;27.83;;;;;;;;;;5032936;28;20051;-69
2022/12/14 06:23:32;;;;;;;37.28;28.67;;;;;;;;;;5031446;28;20041;-68
2022/12/14 06:26:39;;;;;;;33.55;25.77;;;10.10;99.90;;;;;;5032312;28;20291;-69
2022/12/14 06:29:44;;;;;;;35.22;27.42;;;;;;;;;;5032621;28;20068;-69
2022/12/14 06:32:48;;;;;;;34.22;26.30;;;;;;;;;;5032448;28;20045;-67
2022/12/14 06:35:52;;;;;;;34.55;26.15;;;12.10;99.90;;;;;;5032457;28;20056;-70
2022/12/14 06:39:02;;;;;;;35.53;27.65;;;11.50;99.90;;;;;;5031467;28;20041;-71
2022/12/14 06:42:06;;;;;;;38.90;26.58;;;10.10;99.90;;;;;;5031986;28;20040;-71
2022/12/14 06:45:10;;;;;;;37.42;27.95;;;12.20;99.90;;;;;;5031833;28;20036;-70
2022/12/14 06:48:14;;;;;;;37.78;29.73;;;13.00;99.90;;;;;;5031056;28;20049;-68
2022/12/14 06:51:20;;;;;;;42.40;31.92;;;12.20;99.90;;;;;;5032360;28;20072;-70
2022/12/14 06:54:24;;;;;;;39.78;31.23;;;12.30;99.90;;;;;;5042165;28;20072;-70
2022/12/14 06:57:28;;;;;;;38.55;30.27;;;;;;;;;;5031753;28;20052;-70
2022/12/14 07:00:33;;;;;;;38.28;29.38;;;;;;;;;;5031883;28;20037;-70
2022/12/14 07:03:41;;;;;;;35.80;26.67;;;;;;;;;;5031559;28;20044;-69
2022/12/14 07:06:45;;;;;;;27.70;21.13;;;;;;;;;;5031716;28;20044;-69
2022/12/14 07:09:49;;;;;;;27.42;18.20;;;;;;;;;;5031158;28;20040;-69
2022/12/14 07:12:54;;;;;;;26.65;17.48;;;;;;;;;;5030529;28;20504;-69
2022/12/14 07:15:59;;;;;;;20.85;15.52;;;13.40;99.90;;;;;;5031369;28;20091;-69
2022/12/14 07:19:03;;;;;;;24.55;14.77;;;14.20;99.90;;;;;;5030548;28;20056;-69
2022/12/14 07:22:08;;;;;;;18.80;12.98;;;;;;;;;;5031598;28;20056;-69
2022/12/14 07:25:12;;;;;;;23.67;14.88;;;11.10;99.90;;;;;;5031373;28;20040;-69
2022/12/14 07:28:17;;;;;;;21.30;13.93;;;;;;;;;;5031008;28;20048;-69
2022/12/14 07:31:23;;;;;;;17.08;12.23;;;12.10;99.90;;;;;;5041467;28;20045;-69
2022/12/14 07:34:28;;;;;;;19.48;14.15;;;;;;;;;;5031046;28;20060;-69
2022/12/14 07:37:31;;;;;;;23.40;13.82;;;14.60;99.90;;;;;;5030940;28;20044;-69
2022/12/14 07:40:35;;;;;;;17.83;11.52;;;12.80;99.90;;;;;;5031410;28;20048;-69
2022/12/14 07:43:41;;;;;;;16.85;11.48;;;12.70;99.90;;;;;;5031265;28;20112;-68
2022/12/14 07:46:45;;;;;;;17.67;11.85;;;13.30;99.90;;;;;;5041506;28;20048;-69
2022/12/14 07:49:49;;;;;;;17.48;11.65;;;12.80;99.90;;;;;;5030996;28;20060;-69
2022/12/14 07:52:53;;;;;;;17.63;10.73;;;12.80;99.90;;;;;;5030656;28;20299;-70
2022/12/14 07:56:25;;;;;;;15.18;9.18;;;12.80;99.90;;;;;;5034646;28;20072;-69
2022/12/14 07:59:29;;;;;;;12.10;7.70;;;12.90;99.90;;;;;;5034806;28;20044;-68
2022/12/14 08:02:33;;;;;;;10.40;7.57;;;13.00;99.90;;;;;;5034971;28;20037;-68
2022/12/14 08:05:38;;;;;;;17.02;7.38;;;13.00;99.90;;;;;;5034710;28;20385;-68
2022/12/14 08:08:43;;;;;;;14.43;7.47;;;13.00;99.90;;;;;;5035015;28;20044;-69
2022/12/14 08:11:47;;;;;;;14.73;7.50;;;13.00;99.90;;;;;;5033940;28;20045;-68
2022/12/14 08:14:51;;;;;;;13.23;8.48;;;13.20;99.90;;;;;;5033640;28;20516;-70
2022/12/14 08:17:54;;;;;;;13.02;9.45;;;16.20;99.90;;;;;;5033608;28;20040;-68
2022/12/14 08:20:59;;;;;;;12.60;7.38;;;13.20;99.90;;;;;;5034660;28;20056;-68
2022/12/14 08:24:03;;;;;;;17.92;12.98;;;13.20;99.90;;;;;;5034738;28;20061;-70
2022/12/14 08:27:08;;;;;;;17.80;12.73;;;13.20;99.90;;;;;;5034264;28;20053;-68
2022/12/14 08:30:11;;;;;;;17.65;10.88;;;13.20;99.90;;;;;;5034755;28;20049;-69
2022/12/14 08:33:16;;;;;;;14.18;11.70;;;13.40;99.90;;;;;;5034443;28;20499;-70
2022/12/14 08:36:23;;;;;;;20.08;12.63;;;14.20;99.90;;;;;;5033478;28;20060;-69
2022/12/14 08:39:27;;;;;;;22.08;14.48;;;13.20;99.90;;;;;;5033204;28;20056;-69
2022/12/14 08:42:31;;;;;;;26.65;15.80;;;;;;;;;;5033745;28;20052;-70
2022/12/14 08:45:35;;;;;;;22.00;16.65;;;13.20;99.90;;;;;;5034222;28;20143;-68
2022/12/14 08:48:39;;;;;;;19.73;14.68;;;13.30;99.90;;;;;;5033463;28;20048;-69
2022/12/14 08:51:43;;;;;;;21.55;14.80;;;13.30;99.90;;;;;;5034164;28;20048;-69
2022/12/14 08:54:47;;;;;;;22.35;14.63;;;13.40;99.90;;;;;;5033827;28;20069;-69
2022/12/14 08:57:51;;;;;;;15.32;12.20;;;14.70;99.90;;;;;;5033629;28;20045;-69
2022/12/14 09:01:03;;;;;;;19.77;11.75;;;13.40;99.90;;;;;;5033208;28;20060;-69
2022/12/14 09:04:08;;;;;;;12.07;8.00;;;13.50;99.90;;;;;;5033752;28;20496;-69
2022/12/14 09:07:12;;;;;;;7.65;5.85;;;13.60;99.90;;;;;;5033640;28;20045;-70
2022/12/14 09:10:16;;;;;;;8.23;5.20;;;13.60;99.90;;;;;;5033714;28;20389;-69
2022/12/14 09:13:20;;;;;;;13.45;5.85;;;13.70;99.90;;;;;;5033612;28;20044;-70
2022/12/14 09:16:27;;;;;;;10.32;5.53;;;13.80;99.90;;;;;;5033748;28;20056;-69
2022/12/14 09:19:31;;;;;;;6.43;3.30;;;13.40;99.90;;;;;;5033557;28;20040;-69
2022/12/14 09:22:35;;;;;;;5.85;4.03;;;13.90;99.90;;;;;;5032540;28;20040;-70
2022/12/14 09:25:39;;;;;;;10.27;5.85;;;14.00;99.90;;;;;;5033667;28;20040;-70
2022/12/14 09:28:49;;;;;;;7.78;6.03;;;14.10;99.90;;;;;;5033290;28;20151;-68
2022/12/14 09:31:54;;;;;;;7.95;6.15;;;14.10;99.90;;;;;;5033253;28;20042;-70
2022/12/14 09:34:58;;;;;;;9.93;5.85;;;14.10;99.90;;;;;;5032324;28;20056;-69
2022/12/14 09:38:02;;;;;;;6.45;3.53;;;14.10;99.90;;;;;;5033474;28;20123;-69
2022/12/14 09:41:31;;;;;;;5.70;3.55;;;14.10;99.90;;;;;;5033127;28;20378;-70
2022/12/14 09:44:52;;;;;;;4.78;2.70;;;14.20;99.90;;;;;;5033453;28;20514;-70
2022/12/14 09:48:08;;;;;;;2.67;2.17;;;14.30;99.90;;;;;;5032904;28;20040;-70
2022/12/14 09:51:18;;;;;;;5.15;2.85;;;14.40;99.90;;;;;;5033215;28;20052;-70
2022/12/14 09:54:26;;;;;;;4.05;2.55;;;14.40;99.90;;;;;;5032162;28;20409;-70
2022/12/14 09:57:55;;;;;;;3.22;2.15;;;14.40;99.90;;;;;;5032640;28;20060;-69
2022/12/14 10:01:05;;;;;;;6.90;3.20;;;14.40;99.90;;;;;;5032964;28;20204;-69
2022/12/14 10:04:28;;;;;;;8.68;3.42;;;14.40;99.90;;;;;;5032944;28;20139;-69
2022/12/14 10:07:39;;;;;;;15.48;4.38;;;14.50;99.90;;;;;;5032920;28;20040;-69
2022/12/14 10:11:17;;;;;;;14.32;5.03;;;14.60;99.90;;;;;;5032974;28;20056;-69
2022/12/14 10:14:55;;;;;;;9.63;4.28;;;14.60;99.90;;;;;;5032740;28;20052;-69
2022/12/14 10:18:40;;;;;;;14.95;5.03;;;14.70;99.90;;;;;;5030952;28;20052;-69
2022/12/14 10:21:56;;;;;;;9.35;4.05;;;14.80;99.90;;;;;;5032653;28;20045;-69
2022/12/14 10:25:19;;;;;;;15.13;7.38;;;14.80;99.90;;;;;;5032122;28;20328;-68
2022/12/14 10:29:01;;;;;;;22.27;6.32;;;14.90;99.90;;;;;;5032237;28;20044;-70
2022/12/14 10:32:29;;;;;;;33.08;7.80;;;15.00;99.90;;;;;;5011721;28;20049;-69
2022/12/14 10:35:46;;;;;;;42.72;9.15;;;15.10;99.90;;;;;;5032066;28;20056;-69
2022/12/14 10:38:57;;;;;;;59.45;10.05;;;15.20;99.90;;;;;;5031917;28;20052;-69
2022/12/14 10:42:31;;;;;;;67.63;11.50;;;15.30;99.90;;;;;;5032193;28;20044;-68
2022/12/14 10:45:40;;;;;;;76.28;13.02;;;15.50;99.90;;;;;;5046120;28;20048;-69
2022/12/14 10:48:59;;;;;;;68.40;12.00;;;15.70;99.90;;;;;;5031828;28;20064;-69
2022/12/14 10:52:17;;;;;;;73.80;12.85;;;16.00;99.90;;;;;;5032245;28;20036;-68
2022/12/14 10:55:33;;;;;;;68.20;11.68;;;16.20;99.90;;;;;;5031611;28;20052;-69
2022/12/14 10:58:37;;;;;;;78.05;13.05;;;16.20;99.90;;;;;;5031801;28;20048;-68
2022/12/14 11:01:41;;;;;;;83.43;12.20;;;16.20;99.90;;;;;;5031975;28;20405;-68
2022/12/14 11:04:58;;;;;;;70.07;10.15;;;16.20;99.90;;;;;;5031926;28;20049;-69
2022/12/14 11:08:06;;;;;;;61.42;10.95;;;16.30;99.90;;;;;;5031751;28;20053;-69
2022/12/14 11:11:17;;;;;;;74.35;12.15;;;16.30;99.90;;;;;;5032103;28;20048;-69
2022/12/14 11:14:22;;;;;;;76.45;11.50;;;16.50;99.90;;;;;;5031931;28;20116;-69
2022/12/14 11:17:30;;;;;;;78.13;12.63;;;16.50;99.90;;;;;;5031553;28;20044;-69
2022/12/14 11:20:34;;;;;;;81.45;11.52;;;16.60;99.90;;;;;;5030577;28;20504;-69
2022/12/14 11:23:46;;;;;;;78.20;11.45;;;16.50;99.90;;;;;;5031366;28;20049;-70
2022/12/14 11:26:59;;;;;;;86.10;11.80;;;16.50;99.90;;;;;;5031111;28;20068;-69
2022/12/14 11:30:04;;;;;;;76.40;13.05;;;16.50;99.90;;;;;;5031233;28;20393;-68
2022/12/14 11:33:15;;;;;;;73.03;10.80;;;16.50;99.90;;;;;;5031364;28;20063;-70
2022/12/14 11:36:35;;;;;;;71.63;11.63;;;16.50;99.90;;;;;;5031337;28;20060;-69
2022/12/14 11:39:41;;;;;;;69.93;12.30;;;16.60;99.90;;;;;;5031665;28;20599;-69
2022/12/14 11:42:50;;;;;;;73.72;11.32;;;16.60;99.90;;;;;;5031624;28;20044;-69
2022/12/14 11:45:56;;;;;;;70.60;10.00;;;16.60;99.90;;;;;;5031409;28;20040;-69
2022/12/14 11:49:00;;;;;;;68.43;10.18;;;16.60;99.90;;;;;;5031185;28;20048;-69
2022/12/14 11:52:05;;;;;;;78.95;12.10;;;16.60;99.90;;;;;;5031246;28;20048;-69
2022/12/14 11:55:14;;;;;;;72.57;11.10;;;16.60;99.90;;;;;;5029682;28;20508;-69
2022/12/14 11:58:26;;;;;;;81.22;11.32;;;16.60;99.90;;;;;;5031274;28;20040;-69
2022/12/14 12:01:32;;;;;;;57.40;11.00;;;16.60;99.90;;;;;;5029541;28;20064;-67
2022/12/14 12:04:46;;;;;;;56.40;8.82;;;16.70;99.90;;;;;;5030776;28;20074;-69
2022/12/14 12:07:54;;;;;;;72.55;11.57;;;16.70;99.90;;;;;;5031194;28;20048;-69
2022/12/14 12:11:01;;;;;;;53.92;9.90;;;16.70;99.90;;;;;;5031176;28;20120;-70
2022/12/14 12:14:31;;;;;;;65.35;9.95;;;16.70;99.90;;;;;;5030919;28;20040;-70
2022/12/14 12:17:39;;;;;;;60.13;10.75;;;16.70;99.90;;;;;;5031588;28;20394;-68
2022/12/14 12:21:05;;;;;;;59.38;11.00;;;16.70;99.90;;;;;;5031019;28;20053;-69
2022/12/14 12:24:19;;;;;;;57.25;9.70;;;16.70;99.90;;;;;;5030954;28;20393;-69
2022/12/14 12:27:24;;;;;;;58.13;11.43;;;16.70;99.90;;;;;;5030366;28;20061;-69
2022/12/14 12:30:33;;;;;;;71.25;11.10;;;16.70;99.90;;;;;;5030808;28;20048;-69
2022/12/14 12:33:47;;;;;;;59.33;10.80;;;16.70;99.90;;;;;;5030497;28;20049;-70
2022/12/14 12:36:53;;;;;;;55.22;10.60;;;16.70;99.90;;;;;;5030516;28;20052;-69
2022/12/14 12:40:25;;;;;;;49.58;9.35;;;16.70;99.90;;;;;;5031119;28;20124;-69
2022/12/14 12:43:36;;;;;;;50.65;10.18;;;16.70;99.90;;;;;;5034160;28;20060;-71
2022/12/14 12:46:54;;;;;;;61.38;8.93;;;16.70;99.90;;;;;;5034176;28;20049;-69
2022/12/14 12:50:08;;;;;;;63.00;10.18;;;16.70;99.90;;;;;;5034061;28;20215;-68
2022/12/14 12:53:16;;;;;;;80.70;12.80;;;16.70;99.90;;;;;;5034326;28;20112;-68
2022/12/14 12:56:25;;;;;;;88.28;12.50;;;16.80;99.90;;;;;;5033774;28;20064;-68
2022/12/14 12:59:39;;;;;;;62.47;11.85;;;16.80;99.90;;;;;;5033881;28;20044;-70
2022/12/14 13:03:09;;;;;;;63.67;10.93;;;16.80;99.90;;;;;;5033952;28;20501;-70
2022/12/14 13:06:39;;;;;;;74.03;11.00;;;16.70;99.90;;;;;;5032899;28;20040;-69
2022/12/14 13:09:58;;;;;;;43.38;10.55;;;16.70;99.90;;;;;;5034130;28;20052;-70
2022/12/14 13:13:12;;;;;;;63.53;12.13;;;16.70;99.90;;;;;;5033717;28;20060;-67
2022/12/14 13:16:28;;;;;;;69.13;12.15;;;16.70;99.90;;;;;;5033429;28;20053;-68
2022/12/14 13:19:36;;;;;;;77.18;10.52;;;16.70;99.90;;;;;;5033878;28;20068;-70
2022/12/14 13:22:41;;;;;;;73.85;11.30;;;16.80;99.90;;;;;;5033560;28;20052;-69
2022/12/14 13:26:07;;;;;;;60.67;11.77;;;16.80;99.90;;;;;;5033314;28;20116;-69
2022/12/14 13:29:46;;;;;;;72.25;11.55;;;16.80;99.90;;;;;;5033075;28;20052;-69
2022/12/14 13:32:54;;;;;;;75.90;11.45;;;16.80;99.90;;;;;;5035463;28;20064;-69
2022/12/14 13:36:39;;;;;;;54.05;9.98;;;16.70;99.90;;;;;;5033274;28;20408;-70
2022/12/14 13:40:08;;;;;;;71.93;11.45;;;16.70;99.90;;;;;;5028786;28;20076;-70
2022/12/14 13:43:50;;;;;;;56.72;10.80;;;16.70;99.90;;;;;;5033267;28;20053;-67
2022/12/14 13:47:10;;;;;;;64.13;10.80;;;16.70;99.90;;;;;;5043814;28;20045;-67
2022/12/14 13:50:39;;;;;;;51.13;9.50;;;16.70;99.90;;;;;;5033071;28;20053;-67
2022/12/14 13:53:47;;;;;;;62.58;10.55;;;16.70;99.90;;;;;;5033038;28;20041;-68
2022/12/14 13:57:21;;;;;;;65.10;11.40;;;16.70;99.90;;;;;;5032695;28;20052;-66
2022/12/14 14:00:43;;;;;;;61.83;10.73;;;16.70;99.90;;;;;;5033498;28;20052;-67
2022/12/14 14:03:50;;;;;;;66.05;11.02;;;16.70;99.90;;;;;;5031907;28;20044;-66
2022/12/14 14:07:17;;;;;;;74.00;12.52;;;16.70;99.90;;;;;;5032631;28;20044;-72
2022/12/14 14:10:34;;;;;;;67.97;11.85;;;16.70;99.90;;;;;;5032859;28;20389;-69
2022/12/14 14:14:06;;;;;;;87.97;11.82;;;16.70;99.90;;;;;;5032923;28;20064;-70
2022/12/14 14:17:36;;;;;;;73.05;13.43;;;16.80;99.90;;;;;;5032038;28;20056;-72
2022/12/14 14:20:45;;;;;;;61.97;12.55;;;16.70;99.90;;;;;;5032584;28;20389;-71
2022/12/14 14:23:58;;;;;;;83.13;12.77;;;16.80;99.90;;;;;;5032338;28;20049;-68
2022/12/14 14:27:06;;;;;;;89.20;12.65;;;16.80;99.90;;;;;;5032528;28;20235;-69
2022/12/14 14:30:33;;;;;;;86.43;13.13;;;16.80;99.90;;;;;;5043016;28;20503;-69
2022/12/14 14:33:43;;;;;;;79.25;13.10;;;16.80;99.90;;;;;;5032153;28;20036;-68
2022/12/14 14:36:47;;;;;;;66.55;12.10;;;16.80;99.90;;;;;;5032105;28;20401;-71
2022/12/14 14:40:12;;;;;;;74.63;13.18;;;16.80;99.90;;;;;;5032510;28;20048;-68
2022/12/14 14:43:28;;;;;;;89.47;13.13;;;16.80;99.90;;;;;;5032059;28;20052;-69
2022/12/14 14:46:42;;;;;;;74.97;11.88;;;16.70;99.90;;;;;;5031887;28;20040;-68
2022/12/14 14:49:52;;;;;;;71.78;12.60;;;16.80;99.90;;;;;;5031993;28;20041;-69
2022/12/14 14:53:11;;;;;;;75.50;11.52;;;16.80;99.90;;;;;;5031732;28;20048;-69
2022/12/14 14:56:35;;;;;;;55.58;10.27;;;16.80;99.90;;;;;;5031615;28;20056;-68
2022/12/14 14:59:43;;;;;;;74.88;11.30;;;16.80;99.90;;;;;;5042555;28;20103;-68
2022/12/14 15:02:50;;;;;;;62.40;10.15;;;16.80;99.90;;;;;;5031072;28;20049;-67
2022/12/14 15:05:56;;;;;;;53.88;10.50;;;16.80;99.90;;;;;;5032005;28;20421;-69
2022/12/14 15:09:29;;;;;;;71.45;12.20;;;16.80;99.90;;;;;;5031736;28;20048;-69
2022/12/14 15:12:44;;;;;;;71.32;10.75;;;16.80;99.90;;;;;;5031515;28;20060;-67
2022/12/14 15:15:51;;;;;;;50.83;10.48;;;16.80;99.90;;;;;;5031272;28;20060;-68
2022/12/14 15:19:19;;;;;;;62.25;11.05;;;16.80;99.90;;;;;;5031339;28;20037;-67
2022/12/14 15:22:41;;;;;;;80.95;11.82;;;16.80;99.90;;;;;;5031300;28;20044;-68
2022/12/14 15:25:45;;;;;;;61.00;10.50;;;16.80;99.90;;;;;;5030974;28;20041;-68
2022/12/14 15:28:52;;;;;;;58.05;9.82;;;16.80;99.90;;;;;;5031239;28;20048;-69
2022/12/14 15:31:59;;;;;;;76.20;10.38;;;16.80;99.90;;;;;;5031392;28;20048;-68
2022/12/14 15:35:14;;;;;;;70.45;11.10;;;16.80;99.90;;;;;;5031225;28;20267;-67
2022/12/14 15:38:24;;;;;;;58.90;10.23;;;16.80;99.90;;;;;;5031146;28;20060;-71
2022/12/14 15:41:31;;;;;;;70.90;10.93;;;16.80;99.90;;;;;;5031296;28;20049;-70
2022/12/14 15:44:46;;;;;;;89.72;11.98;;;16.80;99.90;;;;;;5030906;28;20049;-67
2022/12/14 15:48:11;;;;;;;63.30;10.90;;;16.80;99.90;;;;;;5030902;28;20512;-69
2022/12/14 15:51:17;;;;;;;55.67;10.23;;;16.80;99.90;;;;;;5031328;28;20048;-70
2022/12/14 15:54:25;;;;;;;65.45;10.98;;;16.80;99.90;;;;;;5030882;28;20060;-71
2022/12/14 15:57:30;;;;;;;54.58;10.10;;;16.90;99.90;;;;;;5030721;28;20053;-69
2022/12/14 16:00:39;;;;;;;70.85;11.93;;;16.90;99.90;;;;;;5030986;28;20044;-70
2022/12/14 16:03:53;;;;;;;61.03;10.68;;;16.90;99.90;;;;;;5031123;28;20044;-68
2022/12/14 16:07:11;;;;;;;58.47;12.27;;;16.90;99.90;;;;;;5030757;28;20520;-70
2022/12/14 16:10:33;;;;;;;64.70;10.65;;;16.90;99.90;;;;;;5030820;28;20076;-69
2022/12/14 16:13:40;;;;;;;46.72;10.65;;;16.90;99.90;;;;;;5030730;28;20048;-68
2022/12/14 16:16:46;;;;;;;70.07;13.88;;;16.90;99.90;;;;;;5033601;28;20413;-68
2022/12/14 16:19:55;;;;;;;80.90;13.40;;;16.90;99.90;;;;;;5034790;28;20070;-67
2022/12/14 16:23:23;;;;;;;72.32;11.52;;;16.90;99.90;;;;;;5034620;28;20056;-68
2022/12/14 16:26:37;;;;;;;76.72;12.07;;;16.90;99.90;;;;;;5034250;28;20036;-68
2022/12/14 16:29:42;;;;;;;90.15;15.25;;;16.90;99.90;;;;;;5034581;28;20496;-71
2022/12/14 16:32:49;;;;;;;76.75;12.45;;;16.90;99.90;;;;;;5034508;28;20393;-73
2022/12/14 16:36:23;;;;;;;88.25;12.98;;;17.00;99.90;;;;;;5045450;28;20056;-75
2022/12/14 16:39:36;;;;;;;85.18;13.52;;;16.90;99.90;;;;;;5034503;28;20040;-69
2022/12/14 16:42:43;;;;;;;73.60;13.02;;;17.00;99.90;;;;;;5034399;28;20492;-69
2022/12/14 16:46:12;;;;;;;87.15;13.43;;;17.00;99.90;;;;;;5034424;28;20056;-70
2022/12/14 16:49:29;;;;;;;74.50;14.30;;;17.00;99.90;;;;;;5033945;28;20161;-72